SCC: Mid-Ohio practice two times

Pos Num Class Team Time Gap To 1st Speed --- --- ----- ------------------------------ ---------- ------- ------- ------- 1. 96 GS Turner Motorsport 1:34.766 85.778 2. 91...

Pos Num Class Team                                 Time     Gap  To 1st   Speed
--- --- ----- ------------------------------ ---------- ------- ------- -------
 1.  96 GS    Turner Motorsport                1:34.766                  85.778
 2.  91 GS    Fiorano Racing                   1:35.024   0.258   0.258  85.545
 3.  05 GS    Multimatic Motorsports           1:35.025   0.001   0.259  85.544
 4.  28 GS    Race Prep Motorsports            1:35.354   0.329   0.588  85.249
 5.  10 GS    Champion Motorsports             1:35.381   0.027   0.615  85.225
 6.  16 GS    Zoom Motorsports                 1:35.398   0.017   0.632  85.209
 7.   6 GS    Zoom Motorsports                 1:35.512   0.114   0.746  85.108
 8.  35 GS    Schuitemaker Motorsports         1:35.686   0.174   0.920  84.953
 9.  40 GS    Team Sahlen                      1:35.722   0.036   0.956  84.921
10.  69 GS    Krohn Racing/TRG                 1:35.735   0.013   0.969  84.909
11.  55 GS    Multimatic Motorsports           1:35.742   0.007   0.976  84.903
12.  93 GS    Anchor Racing                    1:35.809   0.067   1.043  84.844
13.  11 GS    Powell Motorsport                1:35.918   0.109   1.152  84.747
14.   5 GS    Blackforest Motorsports          1:36.041   0.123   1.275  84.639
15.  38 GS    BGB Motorsports                  1:36.065   0.024   1.299  84.618
16.  17 GS    Doncaster Racing                 1:36.123   0.058   1.357  84.567
17.  88 GS    Knobel Racing                    1:36.312   0.189   1.546  84.401
18.  99 GS    Anchor Racing                    1:36.317   0.005   1.551  84.396
19.   7 GS    Power Racing Team                1:36.344   0.027   1.578  84.373
20.  21 GS    Bodymotion Racing                1:36.435   0.091   1.669  84.293
21.  13 GS    Unitech Racing                   1:36.512   0.077   1.746  84.226
22.  59 GS    Rehagen Racing                   1:36.565   0.053   1.799  84.180
23.  18 GS    Race Prep Motorsports            1:36.704   0.139   1.938  84.059
24.  90 GS    Automatic Racing                 1:36.862   0.158   2.096  83.921
25.  89 GS    LNS Motorsports                  1:37.088   0.226   2.322  83.726
26.  47 GS    TF Racing                        1:37.155   0.067   2.389  83.668
27.  60 GS    Finlay Motorsports               1:37.401   0.246   2.635  83.457
28.  83 GS    BGB Motorsports                  1:37.530   0.129   2.764  83.347
29.  58 GS    Rehagen Racing                   1:37.613   0.083   2.847  83.276
30.  43 GS    Team Sahlen                      1:38.103   0.490   3.337  82.860
31.  64 ST    Matt Connolly Motorsports        1:38.994   0.891   4.228  82.114
32.  75 ST    Kensai Racing                    1:39.119   0.125   4.353  82.011
33.  63 GS    Team RPM                         1:39.122   0.003   4.356  82.008
34.  27 ST    Bill Fenton Motorsports          1:39.187   0.065   4.421  81.954
35.  95 ST    Turner Motorsports               1:39.218   0.031   4.452  81.929
36.  07 GS    Powell Motorsport                1:39.279   0.061   4.513  81.878
37.  70 ST    SpeedSource                      1:39.373   0.094   4.607  81.801
38.  87 GS    87                               1:39.433   0.060   4.667  81.752
39.  97 ST    Turner Motorsports               1:39.455   0.022   4.689  81.733
40.  01 ST    Georgian Bay Motorsports         1:39.545   0.090   4.779  81.660
41.  00 ST    Georgian Bay Motorsports         1:39.595   0.050   4.829  81.619
42.  65 ST    SpeedSource                      1:39.641   0.046   4.875  81.581
43.  66 ST    SpeedSource                      1:39.665   0.024   4.899  81.561
44.   2 ST    2                                1:39.775   0.110   5.009  81.471
45.  39 ST    Matt Connolly Motorsports        1:39.860   0.085   5.094  81.402
46.  06 ST    Compass360/Racing                1:40.035   0.175   5.269  81.260
47.  36 ST    Compass360/Racing                1:40.125   0.090   5.359  81.187
48.  32 ST    Franklin American                1:40.174   0.049   5.408  81.147
49.  74 ST    Kensai Racing                    1:40.245   0.071   5.479  81.089
50.  49 ST    Southpaw Racing                  1:40.522   0.277   5.756  80.866
51.  98 ST    Stewart Motorsports              1:40.740   0.218   5.974  80.691
52.  46 ST    Franklin American Mortgage       1:41.022   0.282   6.256  80.466
53.  71 ST    TC Kline Racing                  1:41.160   0.138   6.394  80.356
54.  67 ST    SpeedSource                      1:41.175   0.015   6.409  80.344
55.  68 ST    SpeedSource                      1:41.770   0.595   7.004  79.874
56.  02 ST    Nuzzo Motorsports                1:41.824   0.054   7.058  79.832
57.  72 ST    Anchor Racing                    1:42.088   0.264   7.322  79.625
58.  51 ST    Fountain Motorsports             1:42.272   0.184   7.506  79.482
59.  94 ST    Radial Motorsports               1:42.371   0.099   7.605  79.405
60.  12 ST    TC Kline Racing                  1:42.519   0.148   7.753  79.291
61.  41 ST    Team Sahlen                      1:42.635   0.116   7.869  79.201
62.  62 ST    DEI Racers Group                 1:43.053   0.418   8.287  78.880
63.  50 ST    Southpaw Racing                  1:43.498   0.445   8.732  78.541
64.  29 ST    Bill Fenton Motorsports          1:43.629   0.131   8.863  78.441
65.  20 ST    Nuzzo Motorsports                1:48.804   5.175  14.038  74.710
66.  85 GS    Knobel Racing                    1:51.149   2.345  16.383  73.134
67.   0 ST    0                                 No Time
68.  09 GS    Automatic Racing                  No Time
69.  22 ST    CSL Racing                        No Time
70.  57 ST    Baglieracing                      No Time
71.  92 GS    Anchor Racing                     No Time

Be part of something big

Write a comment
Show comments
About this article
Series Grand-Am
Drivers Matt Connolly , Bill Fenton
Teams Krohn Racing , Rehagen Racing , Turner Motorsport , Team Sahlen , Multimatic Motorsports , Automatic Racing , Bodymotion Racing , SpeedSource